Time;durP1;ratioP1;P1;durP2;ratioP2;P2;SDS_P1;SDS_P2;PMS_P1;PMS_P2;Temp;Humidity;BMP_temperature;BMP_pressure;BME280_temperature;BME280_humidity;BME280_pressure;Samples;Min_cycle;Max_cycle;Signal;HPM_P1;HPM_P2
2021/12/04 00:00:02;;;;;;;1.92;1.40;;;;;;;;;;5050563;28;20692;-73
2021/12/04 00:02:29;;;;;;;1.83;1.42;;;;;;;;;;5050470;28;20059;-73
2021/12/04 00:04:58;;;;;;;2.60;1.30;;;14.60;63.70;;;;;;5050635;28;20541;-73
2021/12/04 00:07:27;;;;;;;1.23;1.13;;;;;;;;;;5050896;28;20475;-73
2021/12/04 00:09:58;;;;;;;1.60;1.40;;;14.10;63.50;;;;;;5050605;28;20056;-73
2021/12/04 00:12:26;;;;;;;1.67;1.38;;;13.90;63.50;;;;;;5050610;28;20482;-73
2021/12/04 00:14:53;;;;;;;1.83;1.40;;;14.00;63.60;;;;;;5050573;28;20132;-73
2021/12/04 00:17:20;;;;;;;1.83;1.40;;;14.20;63.70;;;;;;5049999;28;20065;-73
2021/12/04 00:19:46;;;;;;;1.50;1.25;;;14.00;57.60;;;;;;5050473;28;20131;-73
2021/12/04 00:22:14;;;;;;;1.65;1.40;;;;;;;;;;5050534;28;20473;-73
2021/12/04 00:24:41;;;;;;;1.90;1.40;;;;;;;;;;5050439;28;20098;-73
2021/12/04 00:27:08;;;;;;;1.70;1.48;;;;;;;;;;5049846;28;20127;-73
2021/12/04 00:29:36;;;;;;;2.42;1.35;;;14.00;57.10;;;;;;5051431;28;20136;-73
2021/12/04 00:32:09;;;;;;;1.80;1.40;;;13.90;63.50;;;;;;5050432;28;20107;-73
2021/12/04 00:34:39;;;;;;;1.80;1.40;;;13.90;63.70;;;;;;5050403;28;20115;-73
2021/12/04 00:37:27;;;;;;;1.85;1.40;;;14.00;63.90;;;;;;5049703;28;20053;-73
2021/12/04 00:50:52;;;;;;;2.58;1.77;;;;;;;;;;5051575;28;20048;-73
2021/12/04 00:53:19;;;;;;;1.80;1.45;;;14.00;63.90;;;;;;5050169;28;20088;-73
2021/12/04 00:55:46;;;;;;;1.88;1.42;;;13.90;64.00;;;;;;5049713;28;20485;-73
2021/12/04 00:58:12;;;;;;;2.17;1.67;;;13.80;63.70;;;;;;5051192;28;20127;-73
2021/12/04 01:00:41;;;;;;;1.95;1.40;;;13.80;57.20;;;;;;5049770;28;20135;-74
2021/12/04 01:03:08;;;;;;;3.42;1.52;;;13.70;63.80;;;;;;5049872;28;20136;-73
2021/12/04 01:05:35;;;;;;;1.50;1.40;;;13.80;63.90;;;;;;5049518;28;20124;-73
2021/12/04 01:08:02;;;;;;;1.88;1.40;;;;;;;;;;5050081;28;20461;-73
2021/12/04 01:10:29;;;;;;;1.95;1.60;;;13.50;63.80;;;;;;5051775;28;20132;-73
2021/12/04 01:13:00;;;;;;;2.53;1.63;;;13.80;64.00;;;;;;5053685;28;20084;-73
2021/12/04 01:15:27;;;;;;;2.42;1.70;;;13.80;63.80;;;;;;5053326;28;20071;-73
2021/12/04 01:17:55;;;;;;;2.25;1.88;;;13.80;57.30;;;;;;5053593;28;20085;-74
2021/12/04 01:20:22;;;;;;;1.90;1.52;;;13.70;64.00;;;;;;5053518;28;20148;-74
2021/12/04 01:22:48;;;;;;;3.33;1.50;;;13.80;64.10;;;;;;5053513;28;20061;-73
2021/12/04 01:25:15;;;;;;;2.22;1.63;;;13.80;63.90;;;;;;5053126;28;20091;-73
2021/12/04 01:27:43;;;;;;;1.95;1.42;;;;;;;;;;5053097;28;20151;-74
2021/12/04 01:30:10;;;;;;;2.80;1.58;;;13.40;64.10;;;;;;5052948;28;20049;-73
2021/12/04 01:32:37;;;;;;;2.15;1.70;;;13.90;64.20;;;;;;5054402;28;20081;-73
2021/12/04 01:35:06;;;;;;;2.00;1.50;;;13.80;63.90;;;;;;5053250;28;20520;-73
2021/12/04 01:37:32;;;;;;;2.15;1.52;;;13.80;58.10;;;;;;5052915;28;20143;-73
2021/12/04 01:39:59;;;;;;;1.83;1.50;;;13.80;64.10;;;;;;5052874;28;20127;-73
2021/12/04 01:42:26;;;;;;;2.15;1.58;;;13.80;64.20;;;;;;5052987;28;20516;-73
2021/12/04 01:44:53;;;;;;;2.10;1.60;;;;;;;;;;5053160;28;20151;-74
2021/12/04 01:47:20;;;;;;;2.28;1.70;;;13.80;64.00;;;;;;5052098;28;20053;-73
2021/12/04 01:49:48;;;;;;;2.63;1.63;;;13.90;64.00;;;;;;5052775;28;20048;-73
2021/12/04 01:52:17;;;;;;;2.35;1.70;;;13.60;57.20;;;;;;5052631;28;20056;-73
2021/12/04 01:54:44;;;;;;;2.00;1.60;;;13.70;63.80;;;;;;5053016;28;20052;-73
2021/12/04 01:57:11;;;;;;;1.85;1.60;;;;;;;;;;5052489;28;20136;-74
2021/12/04 01:59:38;;;;;;;2.22;1.73;;;13.60;63.70;;;;;;5052828;28;20131;-73
2021/12/04 02:02:05;;;;;;;1.70;1.50;;;13.90;63.70;;;;;;5052172;28;20136;-73
2021/12/04 02:04:31;;;;;;;2.15;1.52;;;13.90;62.20;;;;;;5052521;28;20053;-72
2021/12/04 02:07:01;;;;;;;2.30;1.50;;;14.00;63.80;;;;;;5052142;28;20124;-73
2021/12/04 02:09:29;;;;;;;2.13;1.50;;;14.00;64.00;;;;;;5052643;28;20139;-73
2021/12/04 02:11:56;;;;;;;1.88;1.60;;;13.70;63.80;;;;;;5052083;28;20131;-73
2021/12/04 02:14:23;;;;;;;2.30;1.60;;;14.00;64.00;;;;;;5052510;28;20137;-73
2021/12/04 02:16:50;;;;;;;2.28;1.70;;;14.00;60.90;;;;;;5052004;28;20080;-73
2021/12/04 02:19:17;;;;;;;2.22;1.70;;;14.10;63.80;;;;;;5052216;28;20072;-74
2021/12/04 02:21:45;;;;;;;2.00;1.50;;;14.00;63.70;;;;;;5052177;28;20553;-73
2021/12/04 02:24:12;;;;;;;2.00;1.60;;;13.90;63.80;;;;;;5052251;28;20135;-73
2021/12/04 02:26:39;;;;;;;2.63;1.90;;;14.00;58.70;;;;;;5051482;28;20127;-73
2021/12/04 02:29:06;;;;;;;2.78;1.90;;;;;;;;;;5052220;28;20447;-74
2021/12/04 02:31:32;;;;;;;2.15;1.63;;;14.10;63.80;;;;;;5051739;28;20085;-73
2021/12/04 02:33:59;;;;;;;2.20;1.65;;;14.10;63.60;;;;;;5051885;28;20516;-73
2021/12/04 02:36:26;;;;;;;2.17;1.60;;;13.90;57.80;;;;;;5051636;28;20127;-73
2021/12/04 02:38:55;;;;;;;2.25;1.67;;;14.00;63.40;;;;;;5051849;28;20049;-73
2021/12/04 02:41:22;;;;;;;2.38;1.50;;;14.10;57.00;;;;;;5051495;28;20413;-74
2021/12/04 02:43:49;;;;;;;2.10;1.42;;;14.10;63.40;;;;;;5051698;28;20144;-73
2021/12/04 02:46:16;;;;;;;2.25;1.67;;;14.20;63.50;;;;;;5051521;28;20137;-73
2021/12/04 02:48:43;;;;;;;2.13;1.60;;;14.20;63.70;;;;;;5051909;28;20140;-73
2021/12/04 02:51:10;;;;;;;1.65;1.40;;;14.10;63.40;;;;;;5051845;28;20493;-73
2021/12/04 02:53:36;;;;;;;2.58;1.70;;;14.20;58.40;;;;;;5051461;28;20508;-73
2021/12/04 02:56:06;;;;;;;1.65;1.33;;;14.10;63.30;;;;;;5051418;28;20139;-73
2021/12/04 02:58:33;;;;;;;2.35;1.73;;;14.10;63.30;;;;;;5051658;28;20532;-73
2021/12/04 03:00:59;;;;;;;1.70;1.50;;;14.10;63.40;;;;;;5051696;28;20110;-73
2021/12/04 03:03:27;;;;;;;1.92;1.38;;;14.20;63.60;;;;;;5051435;28;20587;-73
2021/12/04 03:05:54;;;;;;;1.85;1.50;;;14.10;63.30;;;;;;5050864;28;20049;-73
2021/12/04 03:08:21;;;;;;;1.80;1.58;;;14.20;63.30;;;;;;5051565;28;20064;-74
2021/12/04 03:10:48;;;;;;;2.20;1.63;;;14.10;63.40;;;;;;5051070;28;20547;-72
2021/12/04 03:13:18;;;;;;;1.83;1.50;;;14.30;63.50;;;;;;5051203;28;20123;-74
2021/12/04 03:15:48;;;;;;;1.80;1.30;;;;;;;;;;5052338;28;20633;-73
2021/12/04 03:18:14;;;;;;;2.83;1.45;;;14.00;63.50;;;;;;5051190;28;20147;-73
2021/12/04 03:20:42;;;;;;;1.60;1.30;;;14.30;59.00;;;;;;5051081;28;20080;-72
2021/12/04 03:23:15;;;;;;;1.88;1.50;;;14.20;63.40;;;;;;5050974;28;20084;-74
2021/12/04 03:25:44;;;;;;;1.85;1.40;;;14.20;63.40;;;;;;5062578;28;20063;-74
2021/12/04 03:28:13;;;;;;;1.92;1.30;;;14.20;63.20;;;;;;5059608;28;20099;-74
2021/12/04 03:30:45;;;;;;;1.85;1.30;;;14.20;63.40;;;;;;5057142;28;20508;-74
2021/12/04 03:41:23;;;;;;;2.47;1.35;;;14.30;63.40;;;;;;5062209;28;20079;-75
2021/12/04 03:43:50;;;;;;;1.85;1.20;;;14.30;63.20;;;;;;5061761;28;20155;-73
2021/12/04 03:46:19;;;;;;;1.58;1.27;;;14.20;63.50;;;;;;5057605;28;20547;-74
2021/12/04 03:48:52;;;;;;;1.73;1.33;;;13.80;63.00;;;;;;5056561;28;20106;-76
2021/12/04 03:51:18;;;;;;;1.65;1.20;;;14.20;63.10;;;;;;5054989;28;20115;-73
2021/12/04 03:53:45;;;;;;;2.15;1.40;;;14.00;63.20;;;;;;5058382;28;20056;-74
2021/12/04 03:56:14;;;;;;;1.45;1.25;;;14.30;63.20;;;;;;5061362;28;20045;-74
2021/12/04 03:58:41;;;;;;;1.77;1.30;;;14.20;63.10;;;;;;5062454;28;20048;-73
2021/12/04 04:01:08;;;;;;;1.40;1.30;;;14.30;63.40;;;;;;5053898;28;20128;-74
2021/12/04 04:03:36;;;;;;;1.40;1.30;;;14.40;63.40;;;;;;5057777;28;20340;-74
2021/12/04 04:06:03;;;;;;;1.35;1.25;;;14.40;63.20;;;;;;5059160;28;20136;-74
2021/12/04 04:08:29;;;;;;;1.80;1.20;;;14.30;63.30;;;;;;5055978;28;20079;-73
2021/12/04 04:10:56;;;;;;;1.55;1.20;;;13.70;62.90;;;;;;5048462;28;20064;-73
2021/12/04 04:13:23;;;;;;;1.77;1.30;;;14.40;63.10;;;;;;5054980;28;20056;-73
2021/12/04 04:15:50;;;;;;;1.73;1.30;;;14.10;63.30;;;;;;5050943;28;20057;-73
2021/12/04 04:18:16;;;;;;;1.55;1.38;;;14.40;63.20;;;;;;5045029;28;20107;-74
2021/12/04 04:20:45;;;;;;;1.52;1.13;;;13.90;62.80;;;;;;5053817;28;20053;-73
2021/12/04 04:23:11;;;;;;;1.20;1.10;;;14.40;63.10;;;;;;5048108;28;20053;-73
2021/12/04 04:25:38;;;;;;;1.95;1.50;;;14.30;63.10;;;;;;5045395;28;20091;-73
2021/12/04 04:28:05;;;;;;;1.35;1.17;;;14.50;63.50;;;;;;5050713;28;20038;-74
2021/12/04 04:30:32;;;;;;;1.20;1.10;;;;;;;;;;5049561;28;20493;-73
2021/12/04 04:33:00;;;;;;;1.55;1.30;;;;;;;;;;5049247;28;20045;-75
2021/12/04 04:35:28;;;;;;;1.50;1.20;;;14.50;60.40;;;;;;5052151;28;20083;-74
2021/12/04 04:38:03;;;;;;;1.92;1.30;;;14.30;63.20;;;;;;5047697;28;20049;-73
2021/12/04 04:59:55;;;;;;;1.30;1.20;;;;;;;;;;5054052;28;20116;-72
2021/12/04 05:11:05;;;;;;;1.33;1.10;;;14.60;63.00;;;;;;5053804;28;20057;-71
2021/12/04 05:13:31;;;;;;;1.80;1.27;;;14.70;63.10;;;;;;5053718;28;20052;-71
2021/12/04 05:15:59;;;;;;;1.38;1.10;;;14.60;63.10;;;;;;5053208;28;20077;-71
2021/12/04 05:18:36;;;;;;;1.58;1.00;;;14.60;58.10;;;;;;5054649;28;20173;-72
2021/12/04 05:21:05;;;;;;;1.15;1.05;;;14.70;62.90;;;;;;5053170;28;20049;-71
2021/12/04 05:23:31;;;;;;;1.40;1.20;;;14.70;62.80;;;;;;5053498;28;20053;-71
2021/12/04 05:25:59;;;;;;;1.20;1.05;;;14.70;62.70;;;;;;5053112;28;20132;-72
2021/12/04 05:28:27;;;;;;;1.63;1.35;;;;;;;;;;5053230;28;20135;-71
2021/12/04 05:30:53;;;;;;;1.20;1.10;;;14.70;62.80;;;;;;5053226;28;20064;-71
2021/12/04 05:33:20;;;;;;;2.30;1.42;;;14.70;62.70;;;;;;5053127;28;20129;-71
2021/12/04 05:35:48;;;;;;;1.67;1.20;;;14.60;60.20;;;;;;5053963;28;20120;-71
2021/12/04 05:38:15;;;;;;;2.75;1.25;;;14.00;62.60;;;;;;5053139;28;20065;-72
2021/12/04 05:40:42;;;;;;;1.20;1.10;;;14.80;62.90;;;;;;5052937;28;20064;-71
2021/12/04 05:43:10;;;;;;;1.10;1.00;;;14.60;62.60;;;;;;5053184;28;20107;-71
2021/12/04 05:45:41;;;;;;;1.00;0.93;;;14.50;62.80;;;;;;5052928;28;20060;-71
2021/12/04 05:48:11;;;;;;;1.23;1.00;;;14.30;62.60;;;;;;5052856;28;20053;-71
2021/12/04 05:50:58;;;;;;;1.40;1.20;;;14.70;62.50;;;;;;5052824;28;20490;-71
2021/12/04 05:53:27;;;;;;;1.42;1.20;;;;;;;;;;5052702;28;20129;-72
2021/12/04 05:55:54;;;;;;;2.45;1.55;;;14.70;62.70;;;;;;5052172;28;20555;-71
2021/12/04 05:58:23;;;;;;;1.50;1.10;;;14.70;56.30;;;;;;5052726;28;20129;-71
2021/12/04 06:00:50;;;;;;;1.17;1.00;;;14.60;62.60;;;;;;5052710;28;20077;-71
2021/12/04 06:03:18;;;;;;;1.15;1.05;;;;;;;;;;5052649;28;20091;-71
2021/12/04 06:05:45;;;;;;;1.20;1.10;;;14.70;62.70;;;;;;5052444;28;20145;-71
2021/12/04 06:08:12;;;;;;;1.10;1.00;;;14.60;62.50;;;;;;5053422;28;20075;-72
2021/12/04 06:10:38;;;;;;;1.60;1.17;;;14.60;62.70;;;;;;5052388;28;20516;-71
2021/12/04 06:13:05;;;;;;;1.17;1.08;;;;;;;;;;5052611;28;20474;-72
2021/12/04 06:15:34;;;;;;;0.90;0.90;;;14.20;62.20;;;;;;5052328;28;20156;-71
2021/12/04 06:18:00;;;;;;;1.27;1.00;;;14.10;62.30;;;;;;5052217;28;20057;-71
2021/12/04 06:23:12;;;;;;;1.35;1.10;;;14.60;62.70;;;;;;5053715;28;20127;-72
2021/12/04 06:25:39;;;;;;;1.13;1.00;;;;;;;;;;5051727;28;20128;-71
2021/12/04 06:28:06;;;;;;;1.52;1.10;;;14.20;62.40;;;;;;5051987;28;20049;-71
2021/12/04 06:30:35;;;;;;;1.27;1.08;;;14.70;62.60;;;;;;5052281;28;20141;-71
2021/12/04 06:33:03;;;;;;;1.00;0.90;;;14.60;62.50;;;;;;5052191;28;20144;-71
2021/12/04 06:35:31;;;;;;;1.73;1.10;;;14.60;62.40;;;;;;5051941;28;20087;-71
2021/12/04 06:37:57;;;;;;;1.35;1.10;;;14.30;62.10;;;;;;5051818;28;20064;-71
2021/12/04 06:40:26;;;;;;;1.25;1.10;;;14.10;62.20;;;;;;5052108;28;20654;-71
2021/12/04 06:42:53;;;;;;;1.23;1.05;;;14.70;62.60;;;;;;5051839;28;20555;-71
2021/12/04 06:45:20;;;;;;;1.17;1.00;;;14.60;62.60;;;;;;5051630;28;20057;-72
2021/12/04 06:47:52;;;;;;;1.20;1.10;;;14.70;62.30;;;;;;5051539;28;20080;-71
2021/12/04 06:50:26;;;;;;;1.15;1.05;;;14.60;62.50;;;;;;5051926;28;20068;-72
2021/12/04 06:52:54;;;;;;;1.23;1.00;;;14.70;62.20;;;;;;5051599;28;20049;-72
2021/12/04 06:55:26;;;;;;;1.40;1.10;;;14.30;62.10;;;;;;5051778;28;20055;-72
2021/12/04 06:57:53;;;;;;;1.20;1.00;;;14.70;62.30;;;;;;5052390;28;20075;-71
2021/12/04 07:00:20;;;;;;;1.17;1.00;;;14.70;62.30;;;;;;5033345;28;20496;-71
2021/12/04 07:02:48;;;;;;;1.40;1.13;;;14.70;62.60;;;;;;5031584;28;20065;-72
2021/12/04 07:05:15;;;;;;;1.58;0.98;;;;;;;;;;5031438;28;20478;-72
2021/12/04 07:07:42;;;;;;;1.20;1.05;;;;;;;;;;5030577;28;20132;-71
2021/12/04 07:10:09;;;;;;;1.92;1.20;;;14.70;62.60;;;;;;5031049;28;20141;-71
2021/12/04 07:12:36;;;;;;;1.63;1.00;;;14.50;62.40;;;;;;5031447;28;20151;-71
2021/12/04 07:15:03;;;;;;;1.20;1.10;;;14.70;62.40;;;;;;5031570;28;20141;-72
2021/12/04 07:17:29;;;;;;;1.27;1.10;;;14.60;59.20;;;;;;5031739;28;20509;-71
2021/12/04 07:19:57;;;;;;;1.20;1.10;;;14.70;62.50;;;;;;5037980;28;20088;-71
2021/12/04 07:22:24;;;;;;;1.25;1.15;;;14.60;62.30;;;;;;5051023;28;20132;-71
2021/12/04 07:24:51;;;;;;;1.42;1.20;;;14.80;62.60;;;;;;5051243;28;20139;-72
2021/12/04 07:27:18;;;;;;;1.08;1.00;;;14.70;62.60;;;;;;5050852;28;20048;-71
2021/12/04 07:29:45;;;;;;;1.55;1.20;;;14.70;62.50;;;;;;5050931;28;20053;-71
2021/12/04 07:32:11;;;;;;;1.10;1.00;;;14.10;62.10;;;;;;5049388;28;20144;-72
2021/12/04 07:34:39;;;;;;;1.25;1.13;;;;;;;;;;5051050;28;20135;-71
2021/12/04 07:37:07;;;;;;;1.20;1.10;;;14.00;62.40;;;;;;5050830;28;20131;-71
2021/12/04 07:39:33;;;;;;;1.40;1.17;;;14.70;62.60;;;;;;5051246;28;20144;-71
2021/12/04 07:42:00;;;;;;;1.10;1.00;;;14.50;61.40;;;;;;5050787;28;20132;-71
2021/12/04 07:44:27;;;;;;;1.40;1.10;;;14.60;62.30;;;;;;5052230;28;20474;-71
2021/12/04 07:46:53;;;;;;;1.45;1.20;;;14.70;62.60;;;;;;5050599;28;20132;-71
2021/12/04 07:49:20;;;;;;;1.40;1.27;;;14.40;62.30;;;;;;5049029;28;20167;-71
2021/12/04 07:51:48;;;;;;;1.20;1.10;;;14.70;62.40;;;;;;5051912;28;20128;-71
2021/12/04 07:54:16;;;;;;;1.98;1.30;;;14.70;62.40;;;;;;5050883;28;20448;-71
2021/12/04 07:56:43;;;;;;;1.30;1.20;;;14.60;62.50;;;;;;5033638;28;20059;-71
2021/12/04 07:59:10;;;;;;;1.35;1.15;;;;;;;;;;5050710;28;20140;-72
2021/12/04 08:01:37;;;;;;;1.60;1.23;;;14.60;62.30;;;;;;5050775;28;20143;-71
2021/12/04 08:04:04;;;;;;;1.40;1.20;;;14.70;62.50;;;;;;5050675;28;20587;-72
2021/12/04 08:06:33;;;;;;;1.38;1.10;;;14.70;62.20;;;;;;5039964;28;20553;-71
2021/12/04 08:09:01;;;;;;;1.92;1.33;;;;;;;;;;5030497;28;20119;-72
2021/12/04 08:11:29;;;;;;;1.73;1.30;;;14.60;62.20;;;;;;5030667;28;20426;-71
2021/12/04 08:13:56;;;;;;;1.15;1.05;;;14.50;62.40;;;;;;5030706;28;20143;-72
2021/12/04 08:16:25;;;;;;;1.67;1.20;;;;;;;;;;5030542;28;20084;-72
2021/12/04 08:18:52;;;;;;;1.65;1.20;;;13.90;62.30;;;;;;5030686;28;20050;-71
2021/12/04 08:21:18;;;;;;;1.10;1.00;;;14.40;62.30;;;;;;5034836;28;20061;-71
2021/12/04 08:23:45;;;;;;;1.20;1.10;;;14.70;58.80;;;;;;5047282;28;20136;-71
2021/12/04 08:26:12;;;;;;;1.90;1.30;;;14.60;62.30;;;;;;5053562;28;20065;-71
2021/12/04 08:28:40;;;;;;;1.83;1.25;;;14.70;61.10;;;;;;5052455;28;20087;-71
2021/12/04 08:31:07;;;;;;;1.95;1.10;;;14.50;62.40;;;;;;5054410;28;20140;-71
2021/12/04 08:33:33;;;;;;;1.48;1.17;;;14.60;62.60;;;;;;5054340;28;20132;-71
2021/12/04 08:36:01;;;;;;;1.40;1.20;;;14.70;62.40;;;;;;5054177;28;20132;-71
2021/12/04 08:38:28;;;;;;;1.25;1.15;;;14.80;61.10;;;;;;5054526;28;20132;-71
2021/12/04 08:40:54;;;;;;;1.10;1.00;;;14.70;62.30;;;;;;5044745;28;20049;-72
2021/12/04 08:43:21;;;;;;;1.55;1.10;;;14.20;62.10;;;;;;5054280;28;20136;-74
2021/12/04 08:45:49;;;;;;;1.05;0.93;;;14.40;62.40;;;;;;5054401;28;20140;-74
2021/12/04 08:48:16;;;;;;;2.35;1.10;;;13.90;62.40;;;;;;5054036;28;20059;-73
2021/12/04 08:50:43;;;;;;;7.20;2.00;;;14.70;62.80;;;;;;5054447;28;20132;-73
2021/12/04 08:53:10;;;;;;;3.00;1.50;;;14.80;58.80;;;;;;5054143;28;20140;-74
2021/12/04 08:55:38;;;;;;;2.35;1.40;;;14.90;62.50;;;;;;5053790;28;20128;-74
2021/12/04 08:58:05;;;;;;;1.80;1.40;;;14.90;62.30;;;;;;5053641;28;20049;-74
2021/12/04 09:00:34;;;;;;;2.70;1.38;;;14.60;62.20;;;;;;5050051;28;20132;-74
2021/12/04 09:03:02;;;;;;;2.10;1.45;;;15.00;62.20;;;;;;5034034;28;20099;-74
2021/12/04 09:05:29;;;;;;;2.22;1.65;;;14.90;62.10;;;;;;5050142;28;20413;-74
2021/12/04 09:07:55;;;;;;;2.45;1.48;;;15.00;62.30;;;;;;5053621;28;20140;-74
2021/12/04 09:10:22;;;;;;;2.63;1.83;;;14.40;62.00;;;;;;5043056;28;20141;-75
2021/12/04 09:12:49;;;;;;;2.20;1.50;;;15.00;62.20;;;;;;5035021;28;20573;-74
2021/12/04 09:15:18;;;;;;;1.60;1.38;;;15.10;62.30;;;;;;5033584;28;20133;-74
2021/12/04 09:17:45;;;;;;;2.92;1.58;;;14.70;62.10;;;;;;5033529;28;20084;-74
2021/12/04 09:20:15;;;;;;;2.58;1.70;;;15.10;62.20;;;;;;5048571;28;20131;-74
2021/12/04 09:22:42;;;;;;;2.63;1.60;;;15.10;62.10;;;;;;5053198;28;20056;-76
2021/12/04 09:25:12;;;;;;;2.35;1.60;;;15.10;62.00;;;;;;5052965;28;20127;-74
2021/12/04 09:27:46;;;;;;;2.47;1.50;;;15.10;62.00;;;;;;5051651;28;20128;-75
2021/12/04 09:30:35;;;;;;;3.15;1.50;;;15.10;62.10;;;;;;5052939;28;20049;-75
2021/12/04 10:01:03;;;;;;;3.00;1.60;;;15.20;56.40;;;;;;5071156;28;20076;-73
2021/12/04 10:03:48;;;;;;;2.10;1.70;;;15.10;62.00;;;;;;5057911;28;20083;-73
2021/12/04 10:17:45;;;;;;;3.35;1.67;;;16.10;62.50;;;;;;5009893;28;20167;-73
2021/12/04 10:20:19;;;;;;;2.60;2.00;;;14.70;61.60;;;;;;5057809;28;20040;-72
2021/12/04 10:34:06;;;;;;;3.35;2.10;;;15.30;62.20;;;;;;5055763;28;20044;-74
2021/12/04 10:36:34;;;;;;;3.95;2.50;;;15.30;62.00;;;;;;5068794;28;20507;-74
2021/12/04 10:39:01;;;;;;;3.53;2.40;;;14.40;61.70;;;;;;5070573;28;20063;-74
2021/12/04 10:41:31;;;;;;;3.25;2.40;;;15.20;61.90;;;;;;5070584;28;20729;-73
2021/12/04 10:44:13;;;;;;;4.63;2.50;;;15.30;61.70;;;;;;5070686;28;20090;-73
2021/12/04 10:46:40;;;;;;;3.97;2.70;;;15.40;61.90;;;;;;5042513;28;20140;-73
2021/12/04 10:49:13;;;;;;;3.45;2.50;;;;;;;;;;5046731;28;20505;-75
2021/12/04 10:51:46;;;;;;;4.45;2.50;;;15.30;61.90;;;;;;5057166;28;20056;-73
2021/12/04 10:54:23;;;;;;;3.63;2.55;;;14.40;61.30;;;;;;5055017;28;20424;-74
2021/12/04 10:57:14;;;;;;;3.17;2.45;;;14.90;61.50;;;;;;5056499;28;20405;-73
2021/12/04 10:59:47;;;;;;;3.58;2.58;;;15.10;60.60;;;;;;5056061;28;20060;-74
2021/12/04 11:02:21;;;;;;;3.92;2.78;;;15.70;62.20;;;;;;5056809;28;20048;-73
2021/12/04 11:04:50;;;;;;;4.03;2.85;;;14.90;61.40;;;;;;5049663;28;20075;-73
2021/12/04 11:24:02;;;;;;;4.00;3.15;;;15.40;62.00;;;;;;5053198;28;20507;-73
2021/12/04 11:38:03;;;;;;;3.47;2.92;;;15.30;61.70;;;;;;5014731;28;20312;-73
2021/12/04 11:43:16;;;;;;;4.20;3.20;;;15.30;61.70;;;;;;5026743;28;20489;-74
2021/12/04 11:45:48;;;;;;;3.85;3.10;;;15.30;61.80;;;;;;5053035;28;20412;-74
2021/12/04 11:48:15;;;;;;;4.25;3.25;;;14.70;61.50;;;;;;5055596;28;20061;-74
2021/12/04 11:50:42;;;;;;;4.43;3.13;;;15.30;62.10;;;;;;5055789;28;20087;-73
2021/12/04 11:53:11;;;;;;;3.78;3.15;;;15.10;62.70;;;;;;5055790;28;20144;-73
2021/12/04 11:55:39;;;;;;;4.63;3.40;;;15.20;62.10;;;;;;5054861;28;20078;-73
2021/12/04 11:58:19;;;;;;;3.25;2.90;;;15.20;61.90;;;;;;5072132;28;20105;-76
2021/12/04 12:00:47;;;;;;;5.47;3.33;;;15.20;55.70;;;;;;5055599;28;20052;-73
2021/12/04 12:03:15;;;;;;;4.32;2.90;;;15.80;62.20;;;;;;5055591;28;20139;-74
2021/12/04 12:05:44;;;;;;;3.65;2.75;;;15.40;61.90;;;;;;5054978;28;20083;-74
2021/12/04 12:08:24;;;;;;;4.13;3.10;;;15.30;57.10;;;;;;5055404;28;20508;-74
2021/12/04 12:10:53;;;;;;;4.28;3.20;;;15.10;61.80;;;;;;5055461;28;20059;-74
2021/12/04 12:13:24;;;;;;;4.15;3.42;;;15.20;61.80;;;;;;5055154;28;20133;-74
2021/12/04 12:16:00;;;;;;;4.40;3.40;;;15.30;62.20;;;;;;5054250;28;20412;-73
2021/12/04 12:18:26;;;;;;;4.22;3.38;;;14.40;61.90;;;;;;5054363;28;20514;-73
2021/12/04 12:20:57;;;;;;;5.07;3.38;;;15.30;62.30;;;;;;5053955;28;20076;-73
2021/12/04 12:23:24;;;;;;;5.07;3.40;;;15.20;59.60;;;;;;5054263;28;20067;-73
2021/12/04 12:26:14;;;;;;;4.20;3.10;;;15.30;62.60;;;;;;5054810;28;20052;-73
2021/12/04 12:36:02;;;;;;;3.92;3.30;;;14.70;61.90;;;;;;5034958;28;20057;-73
2021/12/04 12:37:18;;;;;;;5.47;3.40;;;14.10;61.80;;;;;;5034127;28;20402;-73
2021/12/04 12:39:55;;;;;;;4.82;3.60;;;14.90;62.10;;;;;;5034706;28;20056;-73
2021/12/04 12:42:30;;;;;;;5.43;3.85;;;15.10;62.00;;;;;;5034811;28;20092;-73
2021/12/04 12:45:16;;;;;;;4.47;3.35;;;14.50;61.90;;;;;;5034621;28;20072;-73
2021/12/04 12:47:51;;;;;;;;;;;15.10;56.40;;;;;;5034995;28;20067;-73
2021/12/04 12:50:28;;;;;;;4.30;3.30;;;15.80;62.80;;;;;;5050301;28;19971;-73
2021/12/04 12:53:03;;;;;;;3.80;2.90;;;15.10;62.30;;;;;;5034712;28;20128;-73
2021/12/04 12:55:34;;;;;;;3.55;3.22;;;;;;;;;;5034043;28;20485;-73
2021/12/04 12:58:19;;;;;;;3.97;3.28;;;14.60;61.70;;;;;;5034581;28;20057;-73
2021/12/04 13:11:56;;;;;;;3.70;2.97;;;14.70;61.80;;;;;;5051935;28;20041;-73
2021/12/04 13:14:25;;;;;;;3.97;3.20;;;15.10;61.90;;;;;;5034319;28;20131;-73
2021/12/04 13:16:53;;;;;;;3.40;3.08;;;15.60;62.40;;;;;;5033910;28;20053;-73
2021/12/04 13:19:23;;;;;;;4.68;3.47;;;15.20;62.20;;;;;;5033437;28;20144;-74
2021/12/04 13:21:51;;;;;;;4.60;3.42;;;14.70;61.90;;;;;;5046919;28;20156;-75
2021/12/04 13:24:18;;;;;;;4.85;3.38;;;14.40;61.70;;;;;;5053970;28;20084;-75
2021/12/04 13:26:46;;;;;;;8.25;3.55;;;15.50;62.50;;;;;;5053569;28;20072;-76
2021/12/04 13:31:45;;;;;;;4.63;3.30;;;15.30;62.80;;;;;;5054283;28;20056;-76
2021/12/04 13:34:24;;;;;;;5.47;3.70;;;15.40;63.30;;;;;;5053836;28;20139;-74
2021/12/04 13:36:53;;;;;;;4.43;3.38;;;15.40;62.80;;;;;;5053426;28;20128;-76
2021/12/04 13:39:19;;;;;;;8.25;3.38;;;15.20;62.70;;;;;;5052160;28;20302;-74
2021/12/04 13:41:46;;;;;;;5.25;3.78;;;15.40;62.70;;;;;;5054018;28;20155;-74
2021/12/04 13:44:16;;;;;;;5.97;3.50;;;15.50;58.10;;;;;;5071073;28;20444;-74
2021/12/04 13:46:47;;;;;;;6.22;3.83;;;15.50;62.80;;;;;;5066654;28;20128;-74
2021/12/04 13:49:14;;;;;;;4.78;3.70;;;15.40;60.70;;;;;;5050989;28;20525;-74
2021/12/04 13:51:41;;;;;;;6.65;3.53;;;15.40;62.50;;;;;;5053358;28;20100;-77
2021/12/04 13:54:10;;;;;;;4.68;3.42;;;15.40;62.30;;;;;;5071225;28;20130;-74
2021/12/04 13:56:36;;;;;;;5.78;3.70;;;15.30;62.20;;;;;;5052771;28;20102;-74
2021/12/04 13:59:05;;;;;;;4.68;3.30;;;15.20;59.60;;;;;;5053451;28;20131;-75
2021/12/04 14:01:39;;;;;;;5.50;3.50;;;15.40;62.20;;;;;;5053342;28;20084;-75
2021/12/04 14:04:08;;;;;;;5.43;3.55;;;15.50;62.40;;;;;;5053899;28;20048;-75
2021/12/04 14:06:35;;;;;;;5.65;3.35;;;15.60;62.60;;;;;;5071166;28;20053;-74
2021/12/04 14:09:03;;;;;;;6.65;3.30;;;15.20;62.30;;;;;;5053836;28;20483;-76
2021/12/04 14:11:32;;;;;;;6.75;3.63;;;14.50;62.10;;;;;;5053155;28;20471;-74
2021/12/04 14:13:59;;;;;;;8.88;4.57;;;16.00;62.50;;;;;;5053224;28;20131;-73
2021/12/04 14:16:26;;;;;;;6.13;3.92;;;15.00;62.00;;;;;;5053166;28;20475;-74
2021/12/04 14:18:53;;;;;;;9.07;4.20;;;15.50;62.30;;;;;;5053670;28;20136;-73
2021/12/04 14:21:19;;;;;;;6.80;3.83;;;15.60;62.60;;;;;;5055399;28;20135;-74
2021/12/04 14:23:47;;;;;;;11.95;4.00;;;15.00;62.10;;;;;;5075255;28;20131;-74
2021/12/04 14:26:15;;;;;;;6.53;4.50;;;15.40;62.30;;;;;;5056164;28;20058;-73
2021/12/04 14:28:44;;;;;;;7.95;4.30;;;14.80;62.00;;;;;;5073731;28;20048;-73
2021/12/04 14:31:11;;;;;;;5.75;3.88;;;15.40;62.20;;;;;;5056989;28;20056;-74
2021/12/04 14:33:38;;;;;;;7.25;3.90;;;16.30;62.50;;;;;;5056907;28;20131;-73
2021/12/04 14:36:05;;;;;;;10.07;3.95;;;15.30;60.10;;;;;;5056315;28;20044;-74
2021/12/04 14:38:32;;;;;;;6.15;3.80;;;16.20;62.50;;;;;;5056787;28;20618;-73
2021/12/04 14:41:00;;;;;;;5.75;3.80;;;15.40;56.00;;;;;;5056808;28;20148;-75
2021/12/04 14:43:29;;;;;;;9.30;4.40;;;15.40;62.00;;;;;;5056457;28;20132;-73
2021/12/04 14:45:58;;;;;;;6.90;3.90;;;15.40;62.20;;;;;;5048888;28;20052;-74
2021/12/04 14:48:28;;;;;;;7.65;4.30;;;15.00;62.00;;;;;;5056833;28;20076;-73
2021/12/04 14:50:58;;;;;;;8.80;4.40;;;15.40;56.00;;;;;;5056789;28;20567;-73
2021/12/04 14:53:25;;;;;;;6.65;3.75;;;15.20;61.90;;;;;;5056942;28;20063;-74
2021/12/04 14:55:52;;;;;;;6.55;4.15;;;15.40;62.30;;;;;;5063498;28;20159;-73
2021/12/04 14:58:20;;;;;;;4.90;3.55;;;15.40;56.00;;;;;;5069425;28;20470;-74
2021/12/04 15:00:47;;;;;;;6.53;3.63;;;15.40;62.20;;;;;;5056058;28;20060;-73
2021/12/04 15:03:17;;;;;;;6.22;3.58;;;16.40;63.40;;;;;;5056319;28;20131;-73
2021/12/04 15:05:45;;;;;;;6.28;3.60;;;15.30;62.40;;;;;;5056307;28;20139;-73
2021/12/04 15:08:13;;;;;;;6.35;3.80;;;15.20;62.30;;;;;;5073789;28;20056;-73
2021/12/04 15:10:40;;;;;;;6.82;3.55;;;15.30;62.40;;;;;;5056446;28;20162;-73
2021/12/04 15:13:08;;;;;;;5.75;3.67;;;15.30;62.10;;;;;;5055516;28;20110;-73
2021/12/04 15:15:36;;;;;;;6.80;4.03;;;15.30;56.60;;;;;;5055607;28;20098;-73
2021/12/04 15:18:09;;;;;;;6.82;4.10;;;14.70;61.70;;;;;;5073972;28;20056;-73
2021/12/04 15:20:42;;;;;;;7.68;4.00;;;15.30;60.50;;;;;;5056337;28;20060;-73
2021/12/04 15:23:13;;;;;;;7.97;3.78;;;15.20;62.00;;;;;;5056148;28;20052;-73
2021/12/04 15:25:41;;;;;;;8.20;4.15;;;15.20;62.30;;;;;;5055471;28;20056;-74
2021/12/04 15:28:15;;;;;;;7.10;4.20;;;15.30;62.00;;;;;;5055806;28;20048;-73
2021/12/04 15:30:44;;;;;;;6.72;4.18;;;15.30;62.10;;;;;;5055632;28;20139;-75
2021/12/04 15:33:21;;;;;;;8.35;4.63;;;15.20;62.10;;;;;;5073982;28;20123;-73